Time;durP1;ratioP1;P1;durP2;ratioP2;P2;SDS_P1;SDS_P2;PMS_P1;PMS_P2;Temp;Humidity;BMP_temperature;BMP_pressure;BME280_temperature;BME280_humidity;BME280_pressure;Samples;Min_cycle;Max_cycle;Signal;HPM_P1;HPM_P2
2022/10/30 00:01:52;;;;;;;34.00;9.68;;;;;;;15.70;100.00;101533.38;5031637;28;20076;-35
2022/10/30 00:04:17;;;;;;;32.13;10.15;;;;;;;15.68;100.00;101536.22;5032570;28;20080;-35
2022/10/30 00:06:42;;;;;;;31.30;10.48;;;;;;;15.68;100.00;101529.97;5030473;28;20076;-36
2022/10/30 00:09:08;;;;;;;35.28;10.35;;;;;;;15.66;100.00;101538.31;5032355;28;20037;-36
2022/10/30 00:11:34;;;;;;;29.48;10.20;;;;;;;15.63;100.00;101538.69;5028239;28;20035;-37
2022/10/30 00:13:59;;;;;;;31.27;11.10;;;;;;;15.58;100.00;101533.88;5029775;28;20041;-37
2022/10/30 00:16:25;;;;;;;28.27;10.75;;;;;;;15.55;100.00;101542.41;5032308;28;20144;-36
2022/10/30 00:18:50;;;;;;;27.35;10.50;;;;;;;15.54;100.00;101550.75;5030961;28;20053;-37
2022/10/30 00:21:16;;;;;;;23.08;9.80;;;;;;;15.49;100.00;101554.06;5030917;28;20117;-37
2022/10/30 00:23:46;;;;;;;32.88;9.88;;;;;;;15.44;100.00;101555.69;5030914;28;20037;-36
2022/10/30 00:26:11;;;;;;;29.15;10.23;;;;;;;15.41;100.00;101551.50;5031249;28;20419;-36
2022/10/30 00:28:36;;;;;;;30.80;11.15;;;;;;;15.37;100.00;101548.31;5013684;28;20030;-36
2022/10/30 00:31:03;;;;;;;28.95;9.90;;;;;;;15.34;100.00;101558.72;5029932;28;20033;-36
2022/10/30 00:33:28;;;;;;;27.70;10.60;;;;;;;15.29;100.00;101553.06;5029943;28;20147;-35
2022/10/30 00:35:54;;;;;;;39.40;10.88;;;;;;;15.25;100.00;101554.50;5031153;28;20215;-36
2022/10/30 00:38:19;;;;;;;26.58;10.40;;;;;;;15.25;100.00;101551.78;5030150;28;20033;-37
2022/10/30 00:40:44;;;;;;;37.58;11.55;;;;;;;15.27;100.00;101553.25;5030472;28;20056;-37
2022/10/30 00:43:38;;;;;;;39.25;10.43;;;;;;;15.28;100.00;101552.22;5030531;28;20450;-36
2022/10/30 00:46:15;;;;;;;28.90;10.93;;;;;;;15.29;100.00;101534.91;5032504;28;20057;-36
2022/10/30 00:48:43;;;;;;;29.77;11.38;;;;;;;15.28;100.00;101544.09;5029577;28;20534;-37
2022/10/30 00:51:09;;;;;;;26.80;10.65;;;;;;;15.27;100.00;101547.84;5013472;28;20384;-37
2022/10/30 00:53:35;;;;;;;36.85;11.32;;;;;;;15.27;100.00;101544.25;5028835;28;20037;-36
2022/10/30 00:56:04;;;;;;;35.05;11.75;;;;;;;15.25;100.00;101540.94;5031220;28;20433;-37
2022/10/30 00:58:36;;;;;;;34.95;11.38;;;;;;;15.24;100.00;101550.91;5029820;28;20041;-37
2022/10/30 01:01:04;;;;;;;30.25;11.25;;;;;;;15.21;100.00;101550.47;5018050;28;20030;-37
2022/10/30 01:03:30;;;;;;;31.17;11.40;;;;;;;15.19;100.00;101553.38;5028514;28;20025;-36
2022/10/30 01:05:57;;;;;;;38.53;12.27;;;;;;;15.16;100.00;101553.78;5029679;28;20492;-37
2022/10/30 01:08:23;;;;;;;34.20;11.45;;;;;;;15.14;100.00;101553.97;5030202;28;20523;-37
2022/10/30 01:10:49;;;;;;;30.85;11.07;;;;;;;15.11;100.00;101561.66;5028907;28;20038;-36
2022/10/30 01:13:15;;;;;;;31.75;11.30;;;;;;;15.09;100.00;101558.31;5028607;28;20091;-36
2022/10/30 01:15:52;;;;;;;32.60;10.90;;;;;;;15.05;100.00;101565.97;5017210;28;20065;-37
2022/10/30 01:18:34;;;;;;;34.85;12.23;;;;;;;15.02;100.00;101569.06;5028159;28;20049;-36
2022/10/30 01:21:22;;;;;;;32.85;11.88;;;;;;;14.99;100.00;101564.06;5029240;28;20144;-37
2022/10/30 01:24:00;;;;;;;34.47;11.85;;;;;;;14.98;100.00;101566.94;5022936;28;20477;-36
2022/10/30 01:26:49;;;;;;;31.15;11.43;;;;;;;14.95;100.00;101561.91;5027288;28;20065;-37
2022/10/30 01:29:34;;;;;;;28.15;10.95;;;;;;;14.88;100.00;101570.81;5030999;28;20408;-36
2022/10/30 01:32:08;;;;;;;29.80;11.43;;;;;;;14.83;100.00;101572.44;5029260;28;20428;-36
2022/10/30 01:34:51;;;;;;;31.58;11.10;;;;;;;14.77;100.00;101576.75;5028666;28;20038;-36
2022/10/30 01:37:45;;;;;;;27.92;11.73;;;;;;;14.69;100.00;101576.84;5025938;28;20037;-36
2022/10/30 01:40:14;;;;;;;33.03;12.23;;;;;;;14.62;100.00;101574.09;5029567;28;20060;-35
2022/10/30 01:42:53;;;;;;;43.65;13.25;;;;;;;14.58;100.00;101571.94;5028569;28;20116;-37
2022/10/30 01:45:47;;;;;;;36.15;12.25;;;;;;;14.54;100.00;101571.50;5025029;28;20108;-35
2022/10/30 01:48:43;;;;;;;34.92;12.88;;;;;;;14.57;100.00;101579.22;5016952;28;20072;-35
2022/10/30 01:51:11;;;;;;;35.42;11.18;;;;;;;14.58;100.00;101583.59;5028386;28;20114;-36
2022/10/30 01:53:42;;;;;;;;;;;;;;;14.59;100.00;101582.59;5030178;28;20037;-36
2022/10/30 01:56:44;;;;;;;34.70;12.77;;;;;;;14.58;100.00;101588.19;5027475;28;20344;-36
2022/10/30 01:59:16;;;;;;;32.20;11.82;;;;;;;14.53;100.00;101574.38;5028436;28;20037;-36
2022/10/30 02:01:42;;;;;;;33.90;11.13;;;;;;;14.49;100.00;101576.59;5029126;28;20037;-36
2022/10/30 02:04:08;;;;;;;31.60;12.68;;;;;;;14.43;100.00;101580.91;5028799;28;20112;-36
2022/10/30 02:06:34;;;;;;;30.83;11.38;;;;;;;14.39;100.00;101573.34;5028056;28;20026;-36
2022/10/30 02:09:00;;;;;;;24.60;11.20;;;;;;;14.33;100.00;101579.53;5028633;28;20420;-36
2022/10/30 02:11:25;;;;;;;28.80;11.80;;;;;;;14.25;100.00;101565.06;5027525;28;20069;-37
2022/10/30 02:13:53;;;;;;;24.92;11.15;;;;;;;14.20;100.00;101564.78;5028855;28;20025;-37
2022/10/30 02:16:19;;;;;;;31.48;11.88;;;;;;;14.12;100.00;101573.00;5010883;28;20058;-37
2022/10/30 02:18:45;;;;;;;40.88;12.68;;;;;;;14.09;100.00;101567.97;5028188;28;20036;-36
2022/10/30 02:21:11;;;;;;;31.58;11.77;;;;;;;14.05;100.00;101580.19;5027166;28;22283;-36
2022/10/30 02:23:36;;;;;;;28.67;12.50;;;;;;;14.04;100.00;101576.66;5027269;28;20056;-36
2022/10/30 02:26:02;;;;;;;27.40;12.82;;;;;;;14.06;100.00;101581.88;5028372;28;20539;-36
2022/10/30 02:28:27;;;;;;;40.67;13.23;;;;;;;14.10;100.00;101585.88;5029267;28;20691;-36
2022/10/30 02:30:52;;;;;;;32.53;13.82;;;;;;;14.15;100.00;101580.75;5027870;28;20140;-35
2022/10/30 02:33:18;;;;;;;34.25;13.57;;;;;;;14.19;100.00;101587.47;5029026;28;20026;-36
2022/10/30 02:35:43;;;;;;;40.53;13.50;;;;;;;14.21;100.00;101588.09;5028830;28;20079;-36
2022/10/30 02:38:09;;;;;;;39.22;11.48;;;;;;;14.17;100.00;101586.81;5028335;28;20030;-35
2022/10/30 02:40:35;;;;;;;35.40;13.23;;;;;;;14.14;100.00;101591.75;5022160;28;20049;-36
2022/10/30 02:43:00;;;;;;;30.67;11.40;;;;;;;14.05;100.00;101588.31;5029528;28;20060;-36
2022/10/30 02:45:26;;;;;;;32.25;11.75;;;;;;;13.98;100.00;101590.06;5029930;28;20026;-36
2022/10/30 02:47:51;;;;;;;35.63;12.70;;;;;;;13.93;100.00;101606.03;5028313;28;20033;-36
2022/10/30 02:50:16;;;;;;;31.35;12.18;;;;;;;13.87;100.00;101595.94;5028408;28;20033;-36
2022/10/30 02:52:42;;;;;;;27.65;12.05;;;;;;;13.83;100.00;101581.97;5028890;28;20064;-37
2022/10/30 02:55:07;;;;;;;28.15;10.93;;;;;;;13.78;100.00;101582.50;5028421;28;20068;-36
2022/10/30 02:57:33;;;;;;;28.48;12.18;;;;;;;13.71;100.00;101591.53;5029546;28;20544;-37
2022/10/30 02:59:58;;;;;;;33.35;13.13;;;;;;;13.65;100.00;101590.41;5026490;28;20043;-37
2022/10/30 03:02:23;;;;;;;30.88;12.13;;;;;;;13.60;100.00;101592.84;5027799;28;20128;-36
2022/10/30 03:04:49;;;;;;;34.83;13.20;;;;;;;13.55;100.00;101587.13;5028947;28;20108;-36
2022/10/30 03:07:14;;;;;;;27.50;12.35;;;;;;;13.54;100.00;101577.34;5038231;22;20513;-40
2022/10/30 03:09:39;;;;;;;35.13;13.25;;;;;;;13.49;100.00;101577.06;5008673;28;20029;-41
2022/10/30 03:12:05;;;;;;;32.00;13.23;;;;;;;13.47;100.00;101579.09;5009895;28;20041;-41
2022/10/30 03:14:30;;;;;;;43.90;13.85;;;;;;;13.47;100.00;101579.94;5009969;28;20033;-41
2022/10/30 03:16:55;;;;;;;46.90;14.70;;;;;;;13.50;100.00;101589.53;5014402;28;20029;-41
2022/10/30 03:19:21;;;;;;;39.53;13.98;;;;;;;13.47;100.00;101588.03;5013800;28;20041;-41
2022/10/30 03:21:46;;;;;;;45.63;14.98;;;;;;;13.43;100.00;101588.59;5012467;28;20037;-41
2022/10/30 03:24:11;;;;;;;35.63;13.60;;;;;;;13.41;100.00;101577.13;5011606;28;20052;-41
2022/10/30 03:26:37;;;;;;;33.38;14.10;;;;;;;13.37;100.00;101580.19;5012373;28;20041;-40
2022/10/30 03:29:02;;;;;;;31.60;13.70;;;;;;;13.32;100.00;101588.03;5011439;28;20144;-40
2022/10/30 03:31:29;;;;;;;25.05;12.40;;;;;;;13.28;100.00;101584.00;5012733;28;20034;-41
2022/10/30 03:33:55;;;;;;;37.23;14.63;;;;;;;13.24;100.00;101579.09;5012861;28;20067;-41
2022/10/30 03:36:20;;;;;;;46.03;14.98;;;;;;;13.21;100.00;101579.44;5011530;28;20120;-41
2022/10/30 03:38:46;;;;;;;36.42;13.05;;;;;;;13.19;100.00;101582.31;5007772;28;20053;-40
2022/10/30 03:41:11;;;;;;;28.65;13.95;;;;;;;13.14;100.00;101590.16;5014000;28;20088;-41
2022/10/30 03:43:36;;;;;;;34.65;13.27;;;;;;;13.13;100.00;101604.69;5012698;28;20034;-39
2022/10/30 03:46:02;;;;;;;36.30;14.15;;;;;;;13.09;100.00;101589.84;5013261;28;20092;-40
2022/10/30 03:48:28;;;;;;;28.52;13.50;;;;;;;13.08;100.00;101598.97;5009152;28;20046;-40
2022/10/30 03:50:57;;;;;;;49.30;13.40;;;;;;;13.06;100.00;101595.59;5010524;28;20145;-40
2022/10/30 03:53:25;;;;;;;34.20;13.93;;;;;;;13.06;100.00;101598.31;5013332;28;20026;-41
2022/10/30 03:55:57;;;;;;;34.40;15.40;;;;;;;13.08;100.00;101598.97;5012881;28;20037;-41
2022/10/30 03:58:22;;;;;;;35.30;13.88;;;;;;;13.07;100.00;101597.31;5009474;28;20030;-40
2022/10/30 04:00:47;;;;;;;37.63;14.25;;;;;;;13.06;100.00;101603.72;5009363;28;20061;-41
2022/10/30 04:03:13;;;;;;;30.40;13.90;;;;;;;13.04;100.00;101603.06;5009879;28;20469;-41
2022/10/30 04:05:38;;;;;;;37.63;14.20;;;;;;;13.03;100.00;101606.78;5010813;28;20025;-41
2022/10/30 04:08:08;;;;;;;51.60;15.15;;;;;;;13.08;100.00;101598.97;5009087;28;20049;-40
2022/10/30 04:10:34;;;;;;;44.78;14.95;;;;;;;13.09;100.00;101597.97;5009154;28;20537;-41
2022/10/30 04:13:04;;;;;;;35.90;13.95;;;;;;;13.08;100.00;101601.66;5010155;28;20033;-41
2022/10/30 04:15:30;;;;;;;42.67;15.18;;;;;;;13.01;100.00;101601.56;5010620;28;20399;-41
2022/10/30 04:17:55;;;;;;;34.80;13.32;;;;;;;12.94;100.00;101595.19;5010134;28;20026;-41
2022/10/30 04:20:22;;;;;;;34.67;13.13;;;;;;;12.87;100.00;101586.09;5010595;28;20071;-40
2022/10/30 04:22:48;;;;;;;32.50;13.10;;;;;;;12.82;100.00;101581.25;5012219;28;20077;-41
2022/10/30 04:25:13;;;;;;;32.55;13.23;;;;;;;12.82;100.00;101578.56;5011038;28;20065;-41
2022/10/30 04:27:40;;;;;;;35.75;13.57;;;;;;;12.78;100.00;101571.81;5011677;28;20112;-41
2022/10/30 04:30:06;;;;;;;31.92;13.77;;;;;;;12.77;100.00;101575.56;5012272;28;20168;-41
2022/10/30 04:32:31;;;;;;;34.88;14.15;;;;;;;12.77;100.00;101580.97;5012584;28;20116;-41
2022/10/30 04:34:56;;;;;;;31.88;13.23;;;;;;;12.75;100.00;101572.19;5011767;28;20060;-40
2022/10/30 04:37:22;;;;;;;32.28;13.88;;;;;;;12.72;100.00;101564.44;5012264;28;20033;-41
2022/10/30 04:39:48;;;;;;;29.52;13.10;;;;;;;12.70;100.00;101566.47;5012115;28;20076;-41
2022/10/30 04:42:13;;;;;;;30.67;14.15;;;;;;;12.69;100.00;101564.78;5011493;28;20037;-41
2022/10/30 04:44:38;;;;;;;30.00;13.70;;;;;;;12.63;100.00;101563.63;5011391;28;20038;-40
2022/10/30 04:47:04;;;;;;;40.35;13.95;;;;;;;12.62;100.00;101561.97;5010264;28;20026;-41
2022/10/30 04:49:29;;;;;;;35.40;13.90;;;;;;;12.61;100.00;101572.94;5011414;28;20025;-41
2022/10/30 04:51:54;;;;;;;34.67;14.10;;;;;;;12.61;100.00;101578.31;5010336;28;20033;-41
2022/10/30 04:54:20;;;;;;;50.42;16.67;;;;;;;12.61;100.00;101583.72;5008415;28;20076;-41
2022/10/30 04:56:46;;;;;;;39.90;15.93;;;;;;;12.64;100.00;101583.41;5009241;28;20481;-40
2022/10/30 04:59:11;;;;;;;33.85;14.98;;;;;;;12.61;100.00;101578.31;5009380;28;20057;-40
2022/10/30 05:01:37;;;;;;;32.67;15.15;;;;;;;12.60;100.00;101588.28;5011325;28;20037;-40
2022/10/30 05:04:02;;;;;;;40.42;15.23;;;;;;;12.59;100.00;101588.50;5011105;28;20489;-40
2022/10/30 05:06:29;;;;;;;29.98;14.27;;;;;;;12.56;100.00;101580.72;5009688;28;20038;-40
2022/10/30 05:08:55;;;;;;;40.38;16.05;;;;;;;12.47;100.00;101578.06;5021045;28;20026;-42
2022/10/30 05:11:21;;;;;;;38.22;14.90;;;;;;;12.42;100.00;101575.06;5009264;28;20152;-41
2022/10/30 05:13:46;;;;;;;36.63;14.88;;;;;;;12.42;100.00;101576.91;5007645;28;20545;-41
2022/10/30 05:16:12;;;;;;;32.28;14.80;;;;;;;12.43;100.00;101574.06;5008940;28;20034;-41
2022/10/30 05:18:37;;;;;;;33.88;15.70;;;;;;;12.45;100.00;101577.41;5008427;28;20056;-40
2022/10/30 05:21:02;;;;;;;41.03;16.35;;;;;;;12.41;100.00;101573.38;5009402;28;20033;-41
2022/10/30 05:23:28;;;;;;;38.03;15.38;;;;;;;12.39;100.00;101570.00;5008986;28;20037;-40
2022/10/30 05:25:53;;;;;;;42.15;17.15;;;;;;;12.41;100.00;101573.38;5007611;28;20381;-40
2022/10/30 05:28:18;;;;;;;46.70;15.40;;;;;;;12.45;100.00;101576.56;5007713;28;20523;-40
2022/10/30 05:30:44;;;;;;;47.45;17.40;;;;;;;12.45;100.00;101574.72;5009570;28;20533;-42
2022/10/30 05:33:10;;;;;;;42.13;16.08;;;;;;;12.44;100.00;101578.41;5010586;28;20034;-41
2022/10/30 05:35:37;;;;;;;45.45;15.85;;;;;;;12.45;100.00;101574.72;5010864;28;20429;-41
2022/10/30 05:38:04;;;;;;;35.28;15.13;;;;;;;12.42;100.00;101596.66;5002007;28;20042;-42
2022/10/30 05:40:30;;;;;;;39.97;17.23;;;;;;;12.48;100.00;101601.38;5005048;28;20087;-42
2022/10/30 05:42:57;;;;;;;34.97;15.70;;;;;;;12.51;100.00;101606.41;5008629;28;20404;-41
2022/10/30 05:45:22;;;;;;;48.95;18.20;;;;;;;12.52;100.00;101602.69;5008546;28;20229;-41
2022/10/30 05:47:58;;;;;;;38.67;16.33;;;;;;;12.49;100.00;101600.34;5007712;28;20153;-41
2022/10/30 05:50:24;;;;;;;32.33;15.35;;;;;;;12.42;100.00;101593.94;5005290;28;20535;-41
2022/10/30 05:52:57;;;;;;;35.65;14.82;;;;;;;12.35;100.00;101601.09;4994962;28;20045;-41
2022/10/30 05:55:23;;;;;;;38.90;16.08;;;;;;;12.31;100.00;101594.34;4990085;28;20438;-40
2022/10/30 05:57:48;;;;;;;38.97;16.17;;;;;;;12.26;100.00;101592.16;4989518;28;20029;-41
2022/10/30 06:00:14;;;;;;;34.72;14.80;;;;;;;12.22;100.00;101585.44;4991377;28;20030;-39
2022/10/30 06:02:39;;;;;;;38.05;15.35;;;;;;;12.19;100.00;101587.63;4990650;28;20512;-41
2022/10/30 06:05:05;;;;;;;45.47;15.90;;;;;;;12.15;100.00;101584.44;4999262;28;20038;-41
2022/10/30 06:07:30;;;;;;;33.30;15.65;;;;;;;12.16;100.00;101596.06;5007892;28;20074;-40
2022/10/30 06:09:55;;;;;;;41.58;15.43;;;;;;;12.15;100.00;101597.94;5007615;28;20124;-41
2022/10/30 06:12:21;;;;;;;43.08;15.93;;;;;;;12.13;100.00;101597.25;5008308;28;20203;-42
2022/10/30 06:14:46;;;;;;;40.08;17.10;;;;;;;12.13;100.00;101601.81;5007494;28;20048;-42
2022/10/30 06:17:11;;;;;;;37.08;15.80;;;;;;;12.16;100.00;101609.56;5007900;28;20037;-39
2022/10/30 06:19:37;;;;;;;43.90;16.45;;;;;;;12.15;100.00;101614.13;5003670;28;20041;-39
2022/10/30 06:22:02;;;;;;;45.20;16.25;;;;;;;12.18;100.00;101607.53;5007428;28;20026;-39
2022/10/30 06:24:27;;;;;;;45.25;18.45;;;;;;;12.14;100.00;101607.06;5008610;28;20026;-39
2022/10/30 06:26:52;;;;;;;38.97;17.15;;;;;;;12.13;100.00;101608.06;5008703;28;20026;-39
2022/10/30 06:29:18;;;;;;;42.90;15.80;;;;;;;12.11;100.00;101610.09;5002596;28;20070;-38
2022/10/30 06:31:43;;;;;;;40.65;15.27;;;;;;;12.12;100.00;101605.56;4996835;28;20034;-39
2022/10/30 06:34:08;;;;;;;33.38;16.05;;;;;;;12.11;100.00;101610.09;5007418;28;20117;-39
2022/10/30 06:36:34;;;;;;;41.83;16.15;;;;;;;12.15;100.00;101610.59;5006256;28;20120;-40
2022/10/30 06:38:59;;;;;;;36.45;14.75;;;;;;;12.19;100.00;101598.41;5009161;28;20070;-41
2022/10/30 06:41:24;;;;;;;38.92;15.63;;;;;;;12.21;100.00;101599.94;5008432;28;20040;-40
2022/10/30 06:43:50;;;;;;;40.53;16.48;;;;;;;12.27;100.00;101606.53;5008876;28;20026;-40
2022/10/30 06:46:15;;;;;;;40.83;16.33;;;;;;;12.33;100.00;101603.13;5008815;28;20104;-41
2022/10/30 06:48:41;;;;;;;45.85;16.42;;;;;;;12.36;100.00;101601.91;5007614;28;20088;-38
2022/10/30 06:51:07;;;;;;;41.65;16.45;;;;;;;12.43;100.00;101606.44;5010326;28;20048;-40
2022/10/30 06:53:32;;;;;;;36.38;16.25;;;;;;;12.50;100.00;101599.31;5012311;28;20041;-39
2022/10/30 06:56:01;;;;;;;43.92;15.65;;;;;;;12.58;100.00;101589.50;5012355;28;20036;-40
2022/10/30 06:58:27;;;;;;;39.35;15.50;;;;;;;12.69;100.00;101591.78;5011457;28;20489;-40
2022/10/30 07:00:53;;;;;;;31.23;15.45;;;;;;;12.81;100.00;101594.94;5011985;28;20394;-40
2022/10/30 07:03:19;;;;;;;38.72;15.65;;;;;;;12.85;100.00;101596.25;5011621;28;20037;-41
2022/10/30 07:05:45;;;;;;;41.13;15.93;;;;;;;12.94;100.00;101606.84;5012258;28;20034;-40
2022/10/30 07:08:10;;;;;;;41.72;15.77;;;;;;;13.01;100.00;101614.25;4999834;28;20107;-40
2022/10/30 07:10:36;;;;;;;37.38;15.43;;;;;;;13.06;100.00;101617.22;5027730;28;20030;-40
2022/10/30 07:13:01;;;;;;;42.88;15.43;;;;;;;13.12;100.00;101608.41;5011670;28;20034;-39
2022/10/30 07:15:26;;;;;;;32.25;14.30;;;;;;;13.23;100.00;101599.03;5012955;28;20084;-40
2022/10/30 07:17:59;;;;;;;37.95;14.18;;;;;;;13.31;100.00;101591.72;5010182;28;20058;-40
2022/10/30 07:20:26;;;;;;;44.92;15.23;;;;;;;13.31;100.00;101597.13;5011976;28;20038;-40
2022/10/30 07:22:51;;;;;;;41.80;15.73;;;;;;;13.31;100.00;101597.13;5010688;28;20497;-39
2022/10/30 07:25:17;;;;;;;43.67;16.30;;;;;;;13.42;100.00;101597.72;5010018;28;20033;-39
2022/10/30 07:27:43;;;;;;;53.95;15.45;;;;;;;13.50;100.00;101597.66;5007871;28;20068;-40
2022/10/30 07:30:10;;;;;;;39.53;15.13;;;;;;;13.57;100.00;101606.72;5007943;28;20032;-40
2022/10/30 07:32:36;;;;;;;39.63;14.43;;;;;;;13.60;100.00;101600.94;5011254;28;20041;-40
2022/10/30 07:35:03;;;;;;;37.50;15.10;;;;;;;13.64;100.00;101604.97;5009845;28;20022;-40
2022/10/30 07:37:29;;;;;;;33.90;14.90;;;;;;;13.64;100.00;101607.69;5019142;28;20459;-40
2022/10/30 07:39:55;;;;;;;32.88;13.93;;;;;;;13.67;100.00;101601.91;5013382;28;20048;-40
2022/10/30 07:42:20;;;;;;;48.47;14.80;;;;;;;13.82;100.00;101605.47;5003908;28;20034;-40
2022/10/30 07:44:45;;;;;;;40.13;15.57;;;;;;;14.08;100.00;101604.16;4991407;28;20114;-40
2022/10/30 07:47:11;;;;;;;39.13;15.02;;;;;;;14.41;100.00;101603.78;5006499;28;20496;-40
2022/10/30 07:49:36;;;;;;;37.42;14.80;;;;;;;14.75;100.00;101605.06;5001489;28;20029;-40
2022/10/30 07:52:01;;;;;;;38.10;13.80;;;;;;;14.98;100.00;101600.34;5010854;28;20109;-40
2022/10/30 07:54:27;;;;;;;35.95;12.80;;;;;;;15.40;100.00;101603.22;5012297;28;20544;-40
2022/10/30 07:56:52;;;;;;;35.30;12.52;;;;;;;15.77;100.00;101593.94;5011947;28;20072;-40
2022/10/30 07:59:17;;;;;;;34.42;13.20;;;;;;;15.92;100.00;101588.41;5013042;28;20030;-40
2022/10/30 08:01:42;;;;;;;27.85;12.15;;;;;;;16.11;100.00;101584.97;5010760;28;20533;-40
2022/10/30 08:04:10;;;;;;;30.70;11.60;;;;;;;16.12;100.00;101592.09;5011803;28;20392;-41
2022/10/30 08:06:35;;;;;;;31.48;12.02;;;;;;;16.15;100.00;101601.72;5012951;28;20620;-41
2022/10/30 08:09:00;;;;;;;36.80;12.60;;;;;;;16.67;100.00;101597.56;5023121;28;20120;-39
2022/10/30 08:11:26;;;;;;;38.97;13.18;;;;;;;16.95;100.00;101588.47;5014344;28;20026;-41
2022/10/30 08:13:51;;;;;;;31.83;12.27;;;;;;;17.28;99.43;101597.50;5011631;28;20046;-41
2022/10/30 08:16:17;;;;;;;29.65;11.52;;;;;;;17.30;96.20;101589.16;5012183;28;20137;-40
2022/10/30 08:18:42;;;;;;;26.60;12.32;;;;;;;17.42;94.78;101592.06;5009933;28;20018;-41
2022/10/30 08:21:08;;;;;;;31.48;12.60;;;;;;;17.29;95.35;101595.63;5012565;28;20030;-40
2022/10/30 08:23:33;;;;;;;30.15;11.82;;;;;;;16.97;96.85;101610.84;5011781;28;20037;-40
2022/10/30 08:25:59;;;;;;;28.98;12.30;;;;;;;16.84;97.79;101615.19;5012555;28;20046;-40
2022/10/30 08:28:24;;;;;;;30.25;12.05;;;;;;;16.81;98.63;101604.75;5011596;28;20064;-40
2022/10/30 08:30:49;;;;;;;32.50;12.57;;;;;;;16.65;99.40;101607.78;5012577;28;20389;-40
2022/10/30 08:33:15;;;;;;;33.75;13.18;;;;;;;16.59;100.00;101598.59;5011670;28;20500;-41
2022/10/30 08:35:50;;;;;;;29.10;12.32;;;;;;;16.62;100.00;101591.91;5012315;28;20469;-41
2022/10/30 08:38:16;;;;;;;27.92;12.05;;;;;;;16.60;100.00;101589.38;5013037;28;20468;-40
2022/10/30 08:40:41;;;;;;;30.85;12.63;;;;;;;16.58;100.00;101596.06;5011148;28;20030;-40
2022/10/30 08:43:07;;;;;;;32.67;12.80;;;;;;;16.46;100.00;101612.94;5012293;28;20026;-40
2022/10/30 08:45:32;;;;;;;34.47;13.18;;;;;;;16.50;100.00;101610.66;5011375;28;20029;-40
2022/10/30 08:48:00;;;;;;;33.42;12.75;;;;;;;16.64;100.00;101608.81;5011526;28;20041;-40
2022/10/30 08:50:25;;;;;;;27.40;11.90;;;;;;;16.80;100.00;101599.53;5012501;28;20049;-41
2022/10/30 08:52:51;;;;;;;34.80;12.57;;;;;;;17.00;100.00;101605.00;5009100;28;20033;-40
2022/10/30 08:55:16;;;;;;;37.58;11.82;;;;;;;17.15;100.00;101608.38;5011422;28;20088;-39
2022/10/30 08:57:41;;;;;;;31.23;12.38;;;;;;;17.26;100.00;101599.59;5011052;28;20365;-40
2022/10/30 09:00:07;;;;;;;34.95;11.68;;;;;;;17.44;99.64;101609.03;5008395;28;20401;-40
2022/10/30 09:02:34;;;;;;;30.25;12.23;;;;;;;17.57;98.89;101606.31;5010534;28;20394;-40
2022/10/30 09:04:59;;;;;;;33.90;12.93;;;;;;;17.58;97.47;101601.72;5010978;28;20030;-41
2022/10/30 09:07:24;;;;;;;30.33;12.27;;;;;;;17.47;97.24;101605.91;5009133;28;20514;-40
2022/10/30 09:09:50;;;;;;;36.65;13.10;;;;;;;17.50;97.45;101600.03;5011678;28;20113;-40
2022/10/30 09:12:15;;;;;;;27.65;11.98;;;;;;;17.44;97.40;101600.88;5010695;28;20049;-40
2022/10/30 09:14:41;;;;;;;39.85;12.43;;;;;;;17.68;97.79;101602.94;5010756;28;20028;-42
2022/10/30 09:17:06;;;;;;;34.38;12.23;;;;;;;17.84;95.89;101606.31;5010955;28;20462;-40
2022/10/30 09:19:33;;;;;;;32.28;11.10;;;;;;;17.96;95.56;101612.81;5011524;28;20049;-39
2022/10/30 09:21:58;;;;;;;31.70;11.70;;;;;;;18.32;94.93;101615.00;5008912;28;20496;-40
2022/10/30 09:24:23;;;;;;;32.17;11.25;;;;;;;18.12;92.19;101612.34;5011380;28;20018;-39
2022/10/30 09:26:49;;;;;;;28.45;12.15;;;;;;;18.14;92.49;101607.53;5009801;28;20040;-39
2022/10/30 09:29:14;;;;;;;43.33;11.73;;;;;;;18.19;92.05;101610.47;5011569;28;20034;-41
2022/10/30 09:31:39;;;;;;;29.83;11.60;;;;;;;18.40;91.87;101608.47;5010449;28;20029;-41
2022/10/30 09:34:05;;;;;;;31.38;10.98;;;;;;;18.37;90.17;101603.47;5011459;28;20025;-41
2022/10/30 09:36:31;;;;;;;31.48;11.13;;;;;;;18.36;89.38;101602.63;5009713;28;20026;-40
2022/10/30 09:38:57;;;;;;;28.02;10.75;;;;;;;18.64;90.12;101599.59;5011008;28;20029;-40
2022/10/30 09:41:36;;;;;;;33.83;11.25;;;;;;;18.46;88.78;101594.00;5005702;28;20092;-41
2022/10/30 09:44:14;;;;;;;31.85;10.63;;;;;;;18.55;88.66;101594.59;5011258;28;20374;-41
2022/10/30 09:46:45;;;;;;;37.55;10.48;;;;;;;18.73;87.82;101600.16;5008483;28;20030;-40
2022/10/30 09:50:02;;;;;;;34.40;11.75;;;;;;;18.71;87.43;101599.53;5009528;28;20371;-40
2022/10/30 09:52:39;;;;;;;34.38;10.93;;;;;;;19.25;86.78;101602.84;4976047;28;20046;-40
2022/10/30 09:55:28;;;;;;;39.72;10.80;;;;;;;19.41;86.38;101596.81;5010127;28;20048;-40
2022/10/30 09:58:31;;;;;;;33.50;11.07;;;;;;;19.39;85.38;101593.47;4992062;28;20037;-40
2022/10/30 10:01:09;;;;;;;26.50;10.93;;;;;;;19.52;83.94;101593.38;5009356;28;20037;-41
2022/10/30 10:03:48;;;;;;;32.17;10.90;;;;;;;19.43;84.43;101599.31;5009750;28;20539;-40
2022/10/30 10:06:18;;;;;;;32.50;10.73;;;;;;;19.67;82.74;101600.44;5009457;28;20140;-39
2022/10/30 10:08:49;;;;;;;30.83;10.25;;;;;;;19.60;83.74;101589.53;5008500;28;20030;-40
2022/10/30 10:11:24;;;;;;;30.92;9.88;;;;;;;19.56;84.03;101584.72;5009998;28;20120;-39
2022/10/30 10:13:53;;;;;;;26.80;9.55;;;;;;;19.62;85.05;101592.88;5009540;28;20033;-39
2022/10/30 10:16:20;;;;;;;25.45;10.20;;;;;;;19.56;83.85;101593.75;5010533;28;20048;-39
2022/10/30 10:18:51;;;;;;;32.65;9.40;;;;;;;19.54;83.54;101595.88;5008612;28;20486;-40
2022/10/30 10:21:27;;;;;;;22.60;10.10;;;;;;;19.67;83.38;101600.44;5008361;28;20038;-40
2022/10/30 10:24:01;;;;;;;24.40;8.80;;;;;;;19.90;83.09;101600.59;4998715;28;20377;-40
2022/10/30 10:26:49;;;;;;;30.58;10.23;;;;;;;19.80;81.10;101597.56;5001295;28;20097;-40
2022/10/30 10:29:36;;;;;;;26.65;9.85;;;;;;;19.75;82.20;101591.94;4992795;28;20072;-40
2022/10/30 10:32:27;;;;;;;39.78;11.05;;;;;;;19.97;82.79;101591.53;4993801;28;20038;-40
2022/10/30 10:35:16;;;;;;;29.98;9.95;;;;;;;19.56;82.56;101588.28;5004640;28;20046;-39
2022/10/30 10:38:07;;;;;;;22.88;9.40;;;;;;;19.62;83.49;101587.41;5003127;28;20038;-40
2022/10/30 10:40:44;;;;;;;25.23;9.68;;;;;;;19.66;82.83;101587.78;5006759;28;20037;-40
2022/10/30 10:43:34;;;;;;;35.88;10.52;;;;;;;19.93;83.20;101582.91;5008951;28;20034;-39
2022/10/30 10:46:08;;;;;;;25.85;9.93;;;;;;;19.75;80.82;101586.47;4998512;28;20042;-40
2022/10/30 10:49:01;;;;;;;23.38;9.20;;;;;;;19.94;81.88;101577.25;5006181;28;20064;-41
2022/10/30 10:51:40;;;;;;;32.22;10.27;;;;;;;19.93;80.87;101581.03;4995421;28;20056;-39
2022/10/30 10:54:11;;;;;;;24.52;9.32;;;;;;;20.25;81.69;101575.44;5007384;28;20112;-40
2022/10/30 10:56:39;;;;;;;24.58;9.10;;;;;;;20.47;79.39;101562.13;5008882;28;20018;-41
2022/10/30 10:59:12;;;;;;;23.73;8.68;;;;;;;20.61;79.15;101568.28;5007531;28;20037;-40
2022/10/30 11:01:40;;;;;;;28.70;8.70;;;;;;;20.68;79.32;101560.00;5005925;28;20040;-38
2022/10/30 11:04:19;;;;;;;;;;;;;;;20.68;78.98;101569.03;5009361;28;20533;-41
2022/10/30 11:06:48;;;;;;;21.95;8.02;;;;;;;20.61;76.01;101557.31;5008964;28;19918;-39
2022/10/30 11:09:18;;;;;;;21.88;7.95;;;;;;;20.65;77.31;101558.53;5007436;28;20052;-39
2022/10/30 11:11:44;;;;;;;33.33;9.13;;;;;;;20.61;76.40;101554.59;5000759;28;20378;-40